Main page
METAR-TAF:

METAR-TAF

Airports :

RAF Northolt

Northolt, England

latitude: 51-33N, longitude: 000-25W, elevation: 38 m

Current weather observation

The report was made 25 minutes ago, at 08:50 UTC
Wind 6 kt from the West/Northwest
Temperature 6°C
Humidity 81%
Pressure 1034 hPa
Visibility 10 km or more
Few clouds at a height of 1200 ft
Scattered clouds at a height of 22000 ft

METAR: EGWU 260850Z 30006KT 9999 FEW012 SCT220 06/03 Q1034 NOSIG

Time: 09:15 (09:15 UTC)

Forecast

The report was made 1 hour and 50 minutes ago, at 07:25 UTC
Forecast valid from 26 at 09 UTC to 27 at 03 UTC
Wind 5 kt from the Northwest
Visibility 10 km or more
Few clouds at a height of 3000 ft

TAF: EGWU 260725Z 2609/2703 32005KT 9999 FEW030

Weather observations and forecasts of more than 4000 airports (METAR and TAF reports).

The available stations are represented by yellow and red dots on the map.

Hover mouse over dot to see the name of the station.

Then click to see weather observations and forecasts.

To change the map : click on the green buttons with a black cross to zoom in, on the green button with a dash to zoom out, or on the green arrows for adjacent maps.


METAR-TAF: